sensor_id;sensor_type;location;lat;lon;timestamp;P1;durP1;ratioP1;P2;durP2;ratioP2
803;SDS011;25687;49.976;8.240;2023-05-10T00:01:14;2.57;;;0.73;;
803;SDS011;25687;49.976;8.240;2023-05-10T00:03:40;1.43;;;0.67;;
803;SDS011;25687;49.976;8.240;2023-05-10T00:06:05;0.60;;;0.60;;
803;SDS011;25687;49.976;8.240;2023-05-10T00:08:30;1.13;;;0.70;;
803;SDS011;25687;49.976;8.240;2023-05-10T00:10:56;0.50;;;0.50;;
803;SDS011;25687;49.976;8.240;2023-05-10T00:13:21;0.53;;;0.53;;
803;SDS011;25687;49.976;8.240;2023-05-10T00:15:47;0.40;;;0.40;;
803;SDS011;25687;49.976;8.240;2023-05-10T00:18:12;1.10;;;0.60;;
803;SDS011;25687;49.976;8.240;2023-05-10T00:20:37;0.70;;;0.70;;
803;SDS011;25687;49.976;8.240;2023-05-10T00:23:02;0.67;;;0.60;;
803;SDS011;25687;49.976;8.240;2023-05-10T00:25:28;0.50;;;0.50;;
803;SDS011;25687;49.976;8.240;2023-05-10T00:27:53;1.17;;;0.60;;
803;SDS011;25687;49.976;8.240;2023-05-10T00:30:20;0.57;;;0.57;;
803;SDS011;25687;49.976;8.240;2023-05-10T00:32:45;0.67;;;0.67;;
803;SDS011;25687;49.976;8.240;2023-05-10T00:35:12;4.47;;;0.73;;
803;SDS011;25687;49.976;8.240;2023-05-10T00:37:38;0.60;;;0.60;;
803;SDS011;25687;49.976;8.240;2023-05-10T00:40:03;0.97;;;0.73;;
803;SDS011;25687;49.976;8.240;2023-05-10T00:42:29;1.63;;;0.70;;
803;SDS011;25687;49.976;8.240;2023-05-10T00:44:55;0.60;;;0.60;;
803;SDS011;25687;49.976;8.240;2023-05-10T00:47:20;0.50;;;0.50;;
803;SDS011;25687;49.976;8.240;2023-05-10T00:49:46;0.43;;;0.43;;
803;SDS011;25687;49.976;8.240;2023-05-10T00:52:12;0.97;;;0.70;;
803;SDS011;25687;49.976;8.240;2023-05-10T00:54:38;0.77;;;0.60;;
803;SDS011;25687;49.976;8.240;2023-05-10T00:57:03;0.90;;;0.90;;
803;SDS011;25687;49.976;8.240;2023-05-10T00:59:29;1.27;;;0.70;;
803;SDS011;25687;49.976;8.240;2023-05-10T01:01:54;0.83;;;0.70;;
803;SDS011;25687;49.976;8.240;2023-05-10T01:04:20;1.63;;;0.70;;
803;SDS011;25687;49.976;8.240;2023-05-10T01:06:50;0.60;;;0.60;;
803;SDS011;25687;49.976;8.240;2023-05-10T01:09:16;1.00;;;0.70;;
803;SDS011;25687;49.976;8.240;2023-05-10T01:11:42;2.13;;;0.73;;
803;SDS011;25687;49.976;8.240;2023-05-10T01:14:08;1.43;;;0.63;;
803;SDS011;25687;49.976;8.240;2023-05-10T01:16:38;0.67;;;0.60;;
803;SDS011;25687;49.976;8.240;2023-05-10T01:19:06;0.50;;;0.50;;
803;SDS011;25687;49.976;8.240;2023-05-10T01:21:47;4.50;;;0.80;;
803;SDS011;25687;49.976;8.240;2023-05-10T01:24:26;0.60;;;0.60;;
803;SDS011;25687;49.976;8.240;2023-05-10T01:35:42;0.70;;;0.70;;
803;SDS011;25687;49.976;8.240;2023-05-10T01:38:15;0.53;;;0.53;;
803;SDS011;25687;49.976;8.240;2023-05-10T01:40:53;0.60;;;0.60;;
803;SDS011;25687;49.976;8.240;2023-05-10T01:43:42;1.23;;;0.77;;
803;SDS011;25687;49.976;8.240;2023-05-10T01:46:20;0.63;;;0.63;;
803;SDS011;25687;49.976;8.240;2023-05-10T01:48:54;3.80;;;0.70;;
803;SDS011;25687;49.976;8.240;2023-05-10T01:51:26;0.67;;;0.50;;
803;SDS011;25687;49.976;8.240;2023-05-10T01:53:58;0.60;;;0.60;;
803;SDS011;25687;49.976;8.240;2023-05-10T01:56:28;0.60;;;0.60;;
803;SDS011;25687;49.976;8.240;2023-05-10T01:58:55;1.07;;;0.70;;
803;SDS011;25687;49.976;8.240;2023-05-10T02:01:22;0.63;;;0.63;;
803;SDS011;25687;49.976;8.240;2023-05-10T02:03:49;0.60;;;0.60;;
803;SDS011;25687;49.976;8.240;2023-05-10T02:06:16;0.90;;;0.70;;
803;SDS011;25687;49.976;8.240;2023-05-10T02:08:45;1.63;;;0.87;;
803;SDS011;25687;49.976;8.240;2023-05-10T02:11:12;1.03;;;0.80;;
803;SDS011;25687;49.976;8.240;2023-05-10T02:13:38;2.03;;;0.83;;
803;SDS011;25687;49.976;8.240;2023-05-10T02:16:05;3.07;;;0.93;;
803;SDS011;25687;49.976;8.240;2023-05-10T02:18:31;0.80;;;0.80;;
803;SDS011;25687;49.976;8.240;2023-05-10T02:20:59;1.63;;;1.17;;
803;SDS011;25687;49.976;8.240;2023-05-10T02:23:26;1.30;;;0.70;;
803;SDS011;25687;49.976;8.240;2023-05-10T02:25:51;1.53;;;1.20;;
803;SDS011;25687;49.976;8.240;2023-05-10T02:28:19;0.90;;;0.80;;
803;SDS011;25687;49.976;8.240;2023-05-10T02:30:46;0.70;;;0.70;;
803;SDS011;25687;49.976;8.240;2023-05-10T02:33:12;0.97;;;0.97;;
803;SDS011;25687;49.976;8.240;2023-05-10T02:35:39;1.60;;;1.00;;
803;SDS011;25687;49.976;8.240;2023-05-10T02:38:05;1.53;;;1.00;;
803;SDS011;25687;49.976;8.240;2023-05-10T02:40:32;1.23;;;0.90;;
803;SDS011;25687;49.976;8.240;2023-05-10T02:42:58;1.20;;;1.10;;
803;SDS011;25687;49.976;8.240;2023-05-10T02:45:28;1.27;;;1.00;;
803;SDS011;25687;49.976;8.240;2023-05-10T02:47:56;3.90;;;1.10;;
803;SDS011;25687;49.976;8.240;2023-05-10T02:50:21;3.90;;;1.20;;
803;SDS011;25687;49.976;8.240;2023-05-10T02:52:51;1.00;;;1.00;;
803;SDS011;25687;49.976;8.240;2023-05-10T02:55:18;0.77;;;0.77;;
803;SDS011;25687;49.976;8.240;2023-05-10T02:57:52;0.80;;;0.80;;
803;SDS011;25687;49.976;8.240;2023-05-10T03:00:21;3.43;;;1.37;;
803;SDS011;25687;49.976;8.240;2023-05-10T03:02:46;1.30;;;1.20;;
803;SDS011;25687;49.976;8.240;2023-05-10T03:05:12;1.53;;;1.00;;
803;SDS011;25687;49.976;8.240;2023-05-10T03:07:37;2.50;;;1.40;;
803;SDS011;25687;49.976;8.240;2023-05-10T03:10:03;2.93;;;1.17;;
803;SDS011;25687;49.976;8.240;2023-05-10T03:12:47;1.20;;;0.90;;
803;SDS011;25687;49.976;8.240;2023-05-10T03:15:42;1.07;;;1.07;;
803;SDS011;25687;49.976;8.240;2023-05-10T03:19:06;2.50;;;1.30;;
803;SDS011;25687;49.976;8.240;2023-05-10T03:21:17;2.60;;;0.90;;
803;SDS011;25687;49.976;8.240;2023-05-10T03:23:46;2.23;;;1.30;;
803;SDS011;25687;49.976;8.240;2023-05-10T03:26:23;4.23;;;1.10;;
803;SDS011;25687;49.976;8.240;2023-05-10T03:28:51;1.40;;;1.30;;
803;SDS011;25687;49.976;8.240;2023-05-10T03:31:17;3.33;;;1.40;;
803;SDS011;25687;49.976;8.240;2023-05-10T03:33:49;2.27;;;1.20;;
803;SDS011;25687;49.976;8.240;2023-05-10T03:36:15;3.03;;;1.20;;
803;SDS011;25687;49.976;8.240;2023-05-10T03:38:41;1.60;;;1.10;;
803;SDS011;25687;49.976;8.240;2023-05-10T03:41:06;1.53;;;1.20;;
803;SDS011;25687;49.976;8.240;2023-05-10T03:43:32;2.93;;;1.30;;
803;SDS011;25687;49.976;8.240;2023-05-10T03:45:57;0.90;;;0.90;;
803;SDS011;25687;49.976;8.240;2023-05-10T03:48:22;2.67;;;0.90;;
803;SDS011;25687;49.976;8.240;2023-05-10T03:50:47;1.37;;;1.00;;
803;SDS011;25687;49.976;8.240;2023-05-10T03:53:14;1.50;;;1.13;;
803;SDS011;25687;49.976;8.240;2023-05-10T03:55:39;2.53;;;1.13;;
803;SDS011;25687;49.976;8.240;2023-05-10T03:58:05;4.40;;;0.90;;
803;SDS011;25687;49.976;8.240;2023-05-10T04:00:30;2.67;;;1.10;;
803;SDS011;25687;49.976;8.240;2023-05-10T04:02:56;1.13;;;1.13;;
803;SDS011;25687;49.976;8.240;2023-05-10T04:05:21;1.13;;;1.03;;
803;SDS011;25687;49.976;8.240;2023-05-10T04:07:47;1.33;;;1.10;;
803;SDS011;25687;49.976;8.240;2023-05-10T04:10:14;1.30;;;1.07;;
803;SDS011;25687;49.976;8.240;2023-05-10T04:12:41;5.87;;;1.50;;
803;SDS011;25687;49.976;8.240;2023-05-10T04:15:06;2.00;;;1.20;;
803;SDS011;25687;49.976;8.240;2023-05-10T04:17:32;1.73;;;1.20;;
803;SDS011;25687;49.976;8.240;2023-05-10T04:19:57;1.30;;;1.20;;
803;SDS011;25687;49.976;8.240;2023-05-10T04:22:22;2.83;;;1.43;;
803;SDS011;25687;49.976;8.240;2023-05-10T04:24:48;2.20;;;1.40;;
803;SDS011;25687;49.976;8.240;2023-05-10T04:27:13;4.33;;;1.30;;
803;SDS011;25687;49.976;8.240;2023-05-10T04:29:38;1.50;;;1.30;;
803;SDS011;25687;49.976;8.240;2023-05-10T04:32:04;3.83;;;1.47;;
803;SDS011;25687;49.976;8.240;2023-05-10T04:34:29;1.80;;;1.60;;
803;SDS011;25687;49.976;8.240;2023-05-10T04:36:54;2.93;;;1.73;;
803;SDS011;25687;49.976;8.240;2023-05-10T04:39:20;2.90;;;1.40;;
803;SDS011;25687;49.976;8.240;2023-05-10T04:41:45;2.87;;;1.50;;
803;SDS011;25687;49.976;8.240;2023-05-10T04:44:10;1.80;;;1.60;;
803;SDS011;25687;49.976;8.240;2023-05-10T04:46:36;4.30;;;1.43;;
803;SDS011;25687;49.976;8.240;2023-05-10T04:49:01;1.43;;;1.33;;
803;SDS011;25687;49.976;8.240;2023-05-10T04:51:26;6.23;;;2.03;;
803;SDS011;25687;49.976;8.240;2023-05-10T04:53:52;1.97;;;1.77;;
803;SDS011;25687;49.976;8.240;2023-05-10T04:56:17;3.20;;;1.67;;
803;SDS011;25687;49.976;8.240;2023-05-10T04:58:42;3.20;;;1.80;;
803;SDS011;25687;49.976;8.240;2023-05-10T05:01:07;2.60;;;1.80;;
803;SDS011;25687;49.976;8.240;2023-05-10T05:03:33;2.20;;;2.00;;
803;SDS011;25687;49.976;8.240;2023-05-10T05:05:59;2.70;;;1.90;;
803;SDS011;25687;49.976;8.240;2023-05-10T05:08:24;3.37;;;2.10;;
803;SDS011;25687;49.976;8.240;2023-05-10T05:10:49;4.53;;;2.40;;
803;SDS011;25687;49.976;8.240;2023-05-10T05:13:18;3.53;;;2.00;;
803;SDS011;25687;49.976;8.240;2023-05-10T05:15:43;3.20;;;2.03;;
803;SDS011;25687;49.976;8.240;2023-05-10T05:18:08;3.93;;;2.00;;
803;SDS011;25687;49.976;8.240;2023-05-10T05:20:34;7.10;;;2.10;;
803;SDS011;25687;49.976;8.240;2023-05-10T05:22:59;4.90;;;2.67;;
803;SDS011;25687;49.976;8.240;2023-05-10T05:25:25;2.80;;;2.00;;
803;SDS011;25687;49.976;8.240;2023-05-10T05:27:50;2.03;;;1.83;;
803;SDS011;25687;49.976;8.240;2023-05-10T05:30:15;3.70;;;2.40;;
803;SDS011;25687;49.976;8.240;2023-05-10T05:32:41;3.83;;;2.07;;
803;SDS011;25687;49.976;8.240;2023-05-10T05:35:06;6.70;;;2.43;;
803;SDS011;25687;49.976;8.240;2023-05-10T05:37:32;4.10;;;2.43;;
803;SDS011;25687;49.976;8.240;2023-05-10T05:39:57;2.53;;;2.00;;
803;SDS011;25687;49.976;8.240;2023-05-10T05:42:22;3.20;;;2.43;;
803;SDS011;25687;49.976;8.240;2023-05-10T05:44:49;2.37;;;1.93;;
803;SDS011;25687;49.976;8.240;2023-05-10T05:47:14;2.43;;;2.23;;
803;SDS011;25687;49.976;8.240;2023-05-10T05:49:39;3.60;;;2.10;;
803;SDS011;25687;49.976;8.240;2023-05-10T05:52:05;4.93;;;3.40;;
803;SDS011;25687;49.976;8.240;2023-05-10T05:54:30;8.70;;;4.10;;
803;SDS011;25687;49.976;8.240;2023-05-10T05:56:59;3.00;;;2.67;;
803;SDS011;25687;49.976;8.240;2023-05-10T05:59:25;5.57;;;2.10;;
803;SDS011;25687;49.976;8.240;2023-05-10T06:01:51;7.10;;;2.60;;
803;SDS011;25687;49.976;8.240;2023-05-10T06:04:16;5.90;;;2.30;;
803;SDS011;25687;49.976;8.240;2023-05-10T06:06:41;4.67;;;2.60;;
803;SDS011;25687;49.976;8.240;2023-05-10T06:09:07;5.47;;;2.30;;
803;SDS011;25687;49.976;8.240;2023-05-10T06:11:32;3.27;;;2.30;;
803;SDS011;25687;49.976;8.240;2023-05-10T06:13:58;3.37;;;2.17;;
803;SDS011;25687;49.976;8.240;2023-05-10T06:16:24;2.23;;;1.70;;
803;SDS011;25687;49.976;8.240;2023-05-10T06:18:49;4.57;;;2.27;;
803;SDS011;25687;49.976;8.240;2023-05-10T06:21:14;5.33;;;1.87;;
803;SDS011;25687;49.976;8.240;2023-05-10T06:23:41;4.00;;;1.93;;
803;SDS011;25687;49.976;8.240;2023-05-10T06:26:06;3.67;;;2.07;;
803;SDS011;25687;49.976;8.240;2023-05-10T06:28:31;6.40;;;1.80;;
803;SDS011;25687;49.976;8.240;2023-05-10T06:30:58;4.80;;;1.77;;
803;SDS011;25687;49.976;8.240;2023-05-10T06:33:23;5.43;;;1.90;;
803;SDS011;25687;49.976;8.240;2023-05-10T06:35:48;4.53;;;1.97;;
803;SDS011;25687;49.976;8.240;2023-05-10T06:38:14;1.87;;;1.40;;
803;SDS011;25687;49.976;8.240;2023-05-10T06:40:42;6.17;;;1.40;;
803;SDS011;25687;49.976;8.240;2023-05-10T06:43:08;3.50;;;1.90;;
803;SDS011;25687;49.976;8.240;2023-05-10T06:45:33;2.50;;;1.30;;
803;SDS011;25687;49.976;8.240;2023-05-10T06:47:58;2.10;;;1.70;;
803;SDS011;25687;49.976;8.240;2023-05-10T06:50:24;4.70;;;1.63;;
803;SDS011;25687;49.976;8.240;2023-05-10T06:52:49;3.00;;;1.73;;
803;SDS011;25687;49.976;8.240;2023-05-10T06:55:15;2.33;;;1.40;;
803;SDS011;25687;49.976;8.240;2023-05-10T06:57:40;1.60;;;1.13;;
803;SDS011;25687;49.976;8.240;2023-05-10T07:00:06;4.53;;;1.63;;
803;SDS011;25687;49.976;8.240;2023-05-10T07:02:32;4.20;;;1.20;;
803;SDS011;25687;49.976;8.240;2023-05-10T07:04:57;2.67;;;1.50;;
803;SDS011;25687;49.976;8.240;2023-05-10T07:07:22;2.87;;;1.40;;
803;SDS011;25687;49.976;8.240;2023-05-10T07:09:48;3.43;;;1.60;;
803;SDS011;25687;49.976;8.240;2023-05-10T07:12:14;3.77;;;1.50;;
803;SDS011;25687;49.976;8.240;2023-05-10T07:14:40;3.27;;;1.40;;
803;SDS011;25687;49.976;8.240;2023-05-10T07:17:05;4.17;;;1.40;;
803;SDS011;25687;49.976;8.240;2023-05-10T07:19:30;2.13;;;1.50;;
803;SDS011;25687;49.976;8.240;2023-05-10T07:21:57;1.17;;;0.98;;
803;SDS011;25687;49.976;8.240;2023-05-10T07:24:22;2.37;;;1.40;;
803;SDS011;25687;49.976;8.240;2023-05-10T07:26:48;2.60;;;1.10;;
803;SDS011;25687;49.976;8.240;2023-05-10T07:29:13;2.03;;;1.33;;
803;SDS011;25687;49.976;8.240;2023-05-10T07:31:38;3.33;;;1.30;;
803;SDS011;25687;49.976;8.240;2023-05-10T07:34:06;5.07;;;1.33;;
803;SDS011;25687;49.976;8.240;2023-05-10T07:36:31;2.50;;;1.30;;
803;SDS011;25687;49.976;8.240;2023-05-10T07:38:57;3.60;;;1.23;;
803;SDS011;25687;49.976;8.240;2023-05-10T07:41:22;4.80;;;1.30;;
803;SDS011;25687;49.976;8.240;2023-05-10T07:43:48;2.30;;;1.33;;
803;SDS011;25687;49.976;8.240;2023-05-10T07:46:13;2.97;;;1.67;;
803;SDS011;25687;49.976;8.240;2023-05-10T07:48:38;4.50;;;1.60;;
803;SDS011;25687;49.976;8.240;2023-05-10T07:51:03;2.53;;;1.47;;
803;SDS011;25687;49.976;8.240;2023-05-10T07:53:29;2.93;;;1.70;;
803;SDS011;25687;49.976;8.240;2023-05-10T07:55:57;3.00;;;1.57;;
803;SDS011;25687;49.976;8.240;2023-05-10T07:58:23;5.50;;;2.00;;
803;SDS011;25687;49.976;8.240;2023-05-10T08:00:49;4.63;;;2.03;;
803;SDS011;25687;49.976;8.240;2023-05-10T08:03:15;5.73;;;2.23;;
803;SDS011;25687;49.976;8.240;2023-05-10T08:05:41;4.00;;;1.50;;
803;SDS011;25687;49.976;8.240;2023-05-10T08:08:06;7.33;;;1.80;;
803;SDS011;25687;49.976;8.240;2023-05-10T08:10:31;2.90;;;1.53;;
803;SDS011;25687;49.976;8.240;2023-05-10T08:12:56;5.90;;;1.90;;
803;SDS011;25687;49.976;8.240;2023-05-10T08:15:23;5.23;;;2.13;;
803;SDS011;25687;49.976;8.240;2023-05-10T08:17:48;6.70;;;1.90;;
803;SDS011;25687;49.976;8.240;2023-05-10T08:20:14;4.93;;;1.80;;
803;SDS011;25687;49.976;8.240;2023-05-10T08:22:41;6.10;;;1.97;;
803;SDS011;25687;49.976;8.240;2023-05-10T08:25:07;3.37;;;1.53;;
803;SDS011;25687;49.976;8.240;2023-05-10T08:27:32;3.37;;;1.87;;
803;SDS011;25687;49.976;8.240;2023-05-10T08:29:57;3.83;;;1.50;;
803;SDS011;25687;49.976;8.240;2023-05-10T08:32:23;8.07;;;1.90;;
803;SDS011;25687;49.976;8.240;2023-05-10T08:34:48;4.43;;;1.83;;
803;SDS011;25687;49.976;8.240;2023-05-10T08:37:13;3.23;;;2.00;;
803;SDS011;25687;49.976;8.240;2023-05-10T08:39:38;4.47;;;1.67;;
803;SDS011;25687;49.976;8.240;2023-05-10T08:42:04;6.00;;;2.00;;
803;SDS011;25687;49.976;8.240;2023-05-10T08:44:34;5.37;;;2.77;;
803;SDS011;25687;49.976;8.240;2023-05-10T08:47:02;4.70;;;2.13;;
803;SDS011;25687;49.976;8.240;2023-05-10T08:49:30;5.73;;;2.37;;
803;SDS011;25687;49.976;8.240;2023-05-10T08:51:56;4.67;;;1.90;;
803;SDS011;25687;49.976;8.240;2023-05-10T08:54:22;3.40;;;1.90;;
803;SDS011;25687;49.976;8.240;2023-05-10T08:56:49;2.63;;;1.90;;
803;SDS011;25687;49.976;8.240;2023-05-10T08:59:14;6.07;;;2.10;;
803;SDS011;25687;49.976;8.240;2023-05-10T09:01:40;4.23;;;2.10;;
803;SDS011;25687;49.976;8.240;2023-05-10T09:04:09;5.33;;;2.20;;
803;SDS011;25687;49.976;8.240;2023-05-10T09:06:35;2.37;;;1.87;;
803;SDS011;25687;49.976;8.240;2023-05-10T09:09:01;4.10;;;1.67;;
803;SDS011;25687;49.976;8.240;2023-05-10T09:11:26;3.27;;;2.17;;
803;SDS011;25687;49.976;8.240;2023-05-10T09:13:53;3.33;;;1.90;;
803;SDS011;25687;49.976;8.240;2023-05-10T09:16:20;6.33;;;2.13;;
803;SDS011;25687;49.976;8.240;2023-05-10T09:18:45;3.37;;;1.90;;
803;SDS011;25687;49.976;8.240;2023-05-10T09:21:11;4.27;;;2.10;;
803;SDS011;25687;49.976;8.240;2023-05-10T09:23:36;1.77;;;1.50;;
803;SDS011;25687;49.976;8.240;2023-05-10T09:26:05;2.97;;;1.30;;
803;SDS011;25687;49.976;8.240;2023-05-10T09:28:34;2.30;;;1.63;;
803;SDS011;25687;49.976;8.240;2023-05-10T09:31:14;0.73;;;0.63;;
803;SDS011;25687;49.976;8.240;2023-05-10T09:33:43;2.77;;;1.63;;
803;SDS011;25687;49.976;8.240;2023-05-10T09:36:10;0.97;;;0.90;;
803;SDS011;25687;49.976;8.240;2023-05-10T09:38:48;1.60;;;0.83;;
803;SDS011;25687;49.976;8.240;2023-05-10T09:41:17;2.93;;;1.03;;
803;SDS011;25687;49.976;8.240;2023-05-10T09:43:44;2.70;;;0.93;;
803;SDS011;25687;49.976;8.240;2023-05-10T09:46:09;1.13;;;0.80;;
803;SDS011;25687;49.976;8.240;2023-05-10T09:48:39;3.10;;;1.07;;
803;SDS011;25687;49.976;8.240;2023-05-10T09:51:07;1.57;;;0.80;;
803;SDS011;25687;49.976;8.240;2023-05-10T09:53:32;2.87;;;0.63;;
803;SDS011;25687;49.976;8.240;2023-05-10T09:55:58;3.90;;;0.77;;
803;SDS011;25687;49.976;8.240;2023-05-10T09:58:23;0.57;;;0.40;;
803;SDS011;25687;49.976;8.240;2023-05-10T10:00:48;1.77;;;0.60;;
803;SDS011;25687;49.976;8.240;2023-05-10T10:03:17;2.33;;;0.53;;
803;SDS011;25687;49.976;8.240;2023-05-10T10:05:44;1.90;;;0.30;;
803;SDS011;25687;49.976;8.240;2023-05-10T10:08:11;0.37;;;0.37;;
803;SDS011;25687;49.976;8.240;2023-05-10T10:10:37;1.80;;;0.40;;
803;SDS011;25687;49.976;8.240;2023-05-10T10:13:05;0.40;;;0.40;;
803;SDS011;25687;49.976;8.240;2023-05-10T10:15:30;0.45;;;0.40;;
803;SDS011;25687;49.976;8.240;2023-05-10T10:17:57;0.75;;;0.63;;
803;SDS011;25687;49.976;8.240;2023-05-10T10:20:26;1.00;;;0.40;;
803;SDS011;25687;49.976;8.240;2023-05-10T10:22:52;1.10;;;0.60;;
803;SDS011;25687;49.976;8.240;2023-05-10T10:25:19;1.70;;;0.60;;
803;SDS011;25687;49.976;8.240;2023-05-10T10:31:00;1.13;;;0.52;;
803;SDS011;25687;49.976;8.240;2023-05-10T10:36:03;0.85;;;0.52;;
803;SDS011;25687;49.976;8.240;2023-05-10T10:49:48;2.53;;;0.77;;
803;SDS011;25687;49.976;8.240;2023-05-10T10:54:59;0.60;;;0.57;;
803;SDS011;25687;49.976;8.240;2023-05-10T10:57:27;2.80;;;0.87;;
803;SDS011;25687;49.976;8.240;2023-05-10T11:03:10;1.80;;;0.60;;
803;SDS011;25687;49.976;8.240;2023-05-10T11:05:40;5.10;;;0.80;;
803;SDS011;25687;49.976;8.240;2023-05-10T11:08:20;3.17;;;1.10;;
803;SDS011;25687;49.976;8.240;2023-05-10T11:13:29;2.80;;;0.63;;
803;SDS011;25687;49.976;8.240;2023-05-10T11:15:59;3.13;;;2.23;;
803;SDS011;25687;49.976;8.240;2023-05-10T11:18:35;0.50;;;0.50;;
803;SDS011;25687;49.976;8.240;2023-05-10T11:21:02;0.73;;;0.67;;
803;SDS011;25687;49.976;8.240;2023-05-10T11:23:47;2.47;;;0.90;;
803;SDS011;25687;49.976;8.240;2023-05-10T11:26:17;1.90;;;0.90;;
803;SDS011;25687;49.976;8.240;2023-05-10T11:28:46;1.53;;;0.70;;
803;SDS011;25687;49.976;8.240;2023-05-10T11:31:13;1.37;;;0.93;;
803;SDS011;25687;49.976;8.240;2023-05-10T11:33:46;1.60;;;0.40;;
803;SDS011;25687;49.976;8.240;2023-05-10T11:36:20;0.40;;;0.40;;
803;SDS011;25687;49.976;8.240;2023-05-10T11:38:57;2.50;;;0.60;;
803;SDS011;25687;49.976;8.240;2023-05-10T11:41:23;1.70;;;0.53;;
803;SDS011;25687;49.976;8.240;2023-05-10T11:43:49;1.17;;;0.80;;
803;SDS011;25687;49.976;8.240;2023-05-10T11:46:17;1.50;;;0.67;;
803;SDS011;25687;49.976;8.240;2023-05-10T11:48:45;1.33;;;0.40;;
803;SDS011;25687;49.976;8.240;2023-05-10T11:51:11;0.50;;;0.50;;
803;SDS011;25687;49.976;8.240;2023-05-10T11:53:37;1.60;;;0.70;;
803;SDS011;25687;49.976;8.240;2023-05-10T11:56:03;8.97;;;0.70;;
803;SDS011;25687;49.976;8.240;2023-05-10T11:58:33;1.77;;;0.70;;
803;SDS011;25687;49.976;8.240;2023-05-10T12:00:59;2.40;;;0.53;;
803;SDS011;25687;49.976;8.240;2023-05-10T12:03:25;1.20;;;0.40;;
803;SDS011;25687;49.976;8.240;2023-05-10T12:05:51;1.93;;;0.70;;
803;SDS011;25687;49.976;8.240;2023-05-10T12:08:20;1.03;;;0.70;;
803;SDS011;25687;49.976;8.240;2023-05-10T12:10:47;4.10;;;1.10;;
803;SDS011;25687;49.976;8.240;2023-05-10T12:13:12;1.90;;;0.70;;
803;SDS011;25687;49.976;8.240;2023-05-10T12:15:41;4.17;;;0.80;;
803;SDS011;25687;49.976;8.240;2023-05-10T12:18:09;2.63;;;0.73;;
803;SDS011;25687;49.976;8.240;2023-05-10T12:20:35;1.53;;;0.60;;
803;SDS011;25687;49.976;8.240;2023-05-10T12:23:01;3.43;;;0.60;;
803;SDS011;25687;49.976;8.240;2023-05-10T12:25:31;2.73;;;0.70;;
803;SDS011;25687;49.976;8.240;2023-05-10T12:27:58;2.20;;;0.77;;
803;SDS011;25687;49.976;8.240;2023-05-10T12:30:28;2.97;;;0.57;;
803;SDS011;25687;49.976;8.240;2023-05-10T12:32:59;2.47;;;0.93;;
803;SDS011;25687;49.976;8.240;2023-05-10T12:35:26;1.90;;;0.80;;
803;SDS011;25687;49.976;8.240;2023-05-10T12:37:55;1.83;;;0.50;;
803;SDS011;25687;49.976;8.240;2023-05-10T12:40:20;2.90;;;0.70;;
803;SDS011;25687;49.976;8.240;2023-05-10T12:42:45;1.43;;;0.80;;
803;SDS011;25687;49.976;8.240;2023-05-10T12:45:11;0.77;;;0.73;;
803;SDS011;25687;49.976;8.240;2023-05-10T12:47:37;1.80;;;0.77;;
803;SDS011;25687;49.976;8.240;2023-05-10T12:50:03;2.67;;;0.80;;
803;SDS011;25687;49.976;8.240;2023-05-10T12:52:29;4.17;;;1.47;;
803;SDS011;25687;49.976;8.240;2023-05-10T12:54:56;1.37;;;0.70;;
803;SDS011;25687;49.976;8.240;2023-05-10T12:57:22;1.80;;;0.93;;
803;SDS011;25687;49.976;8.240;2023-05-10T12:59:48;3.13;;;0.90;;
803;SDS011;25687;49.976;8.240;2023-05-10T13:02:13;2.87;;;1.00;;
803;SDS011;25687;49.976;8.240;2023-05-10T13:04:39;1.73;;;0.60;;
803;SDS011;25687;49.976;8.240;2023-05-10T13:07:08;2.93;;;0.83;;
803;SDS011;25687;49.976;8.240;2023-05-10T13:09:34;1.53;;;0.97;;
803;SDS011;25687;49.976;8.240;2023-05-10T13:11:59;3.73;;;1.00;;
803;SDS011;25687;49.976;8.240;2023-05-10T13:14:25;0.70;;;0.50;;
803;SDS011;25687;49.976;8.240;2023-05-10T13:16:50;3.07;;;0.80;;
803;SDS011;25687;49.976;8.240;2023-05-10T13:19:16;2.53;;;0.60;;
803;SDS011;25687;49.976;8.240;2023-05-10T13:21:42;1.37;;;0.60;;
803;SDS011;25687;49.976;8.240;2023-05-10T13:24:09;4.73;;;0.57;;
803;SDS011;25687;49.976;8.240;2023-05-10T13:26:35;2.57;;;0.77;;
803;SDS011;25687;49.976;8.240;2023-05-10T13:29:01;1.33;;;0.53;;
803;SDS011;25687;49.976;8.240;2023-05-10T13:31:26;1.93;;;0.70;;
803;SDS011;25687;49.976;8.240;2023-05-10T13:33:52;1.10;;;0.50;;
803;SDS011;25687;49.976;8.240;2023-05-10T13:36:18;5.57;;;1.00;;
803;SDS011;25687;49.976;8.240;2023-05-10T13:38:43;3.50;;;0.67;;
803;SDS011;25687;49.976;8.240;2023-05-10T13:41:08;0.63;;;0.60;;
803;SDS011;25687;49.976;8.240;2023-05-10T13:43:35;3.37;;;0.83;;
803;SDS011;25687;49.976;8.240;2023-05-10T13:46:01;1.30;;;0.93;;
803;SDS011;25687;49.976;8.240;2023-05-10T13:48:27;1.03;;;0.70;;
803;SDS011;25687;49.976;8.240;2023-05-10T13:50:53;4.13;;;0.70;;
803;SDS011;25687;49.976;8.240;2023-05-10T13:53:19;2.23;;;0.97;;
803;SDS011;25687;49.976;8.240;2023-05-10T13:55:46;1.50;;;0.90;;
803;SDS011;25687;49.976;8.240;2023-05-10T13:58:12;1.13;;;0.70;;
803;SDS011;25687;49.976;8.240;2023-05-10T14:00:38;5.30;;;0.80;;
803;SDS011;25687;49.976;8.240;2023-05-10T14:03:03;4.63;;;1.00;;
803;SDS011;25687;49.976;8.240;2023-05-10T14:05:30;0.83;;;0.63;;
803;SDS011;25687;49.976;8.240;2023-05-10T14:07:55;2.73;;;0.97;;
803;SDS011;25687;49.976;8.240;2023-05-10T14:10:21;2.50;;;1.10;;
803;SDS011;25687;49.976;8.240;2023-05-10T14:12:46;1.40;;;0.90;;
803;SDS011;25687;49.976;8.240;2023-05-10T14:15:13;1.43;;;0.87;;
803;SDS011;25687;49.976;8.240;2023-05-10T14:17:39;2.47;;;1.20;;
803;SDS011;25687;49.976;8.240;2023-05-10T14:20:05;2.27;;;0.80;;
803;SDS011;25687;49.976;8.240;2023-05-10T14:22:31;3.50;;;1.00;;
803;SDS011;25687;49.976;8.240;2023-05-10T14:24:57;2.17;;;0.70;;
803;SDS011;25687;49.976;8.240;2023-05-10T14:27:23;1.87;;;0.80;;
803;SDS011;25687;49.976;8.240;2023-05-10T14:29:49;2.33;;;0.83;;
803;SDS011;25687;49.976;8.240;2023-05-10T14:32:16;3.03;;;1.40;;
803;SDS011;25687;49.976;8.240;2023-05-10T14:34:41;1.93;;;0.80;;
803;SDS011;25687;49.976;8.240;2023-05-10T14:37:09;1.63;;;0.87;;
803;SDS011;25687;49.976;8.240;2023-05-10T14:39:35;2.63;;;1.00;;
803;SDS011;25687;49.976;8.240;2023-05-10T14:42:01;2.90;;;0.80;;
803;SDS011;25687;49.976;8.240;2023-05-10T14:44:27;2.93;;;0.80;;
803;SDS011;25687;49.976;8.240;2023-05-10T14:46:53;3.20;;;1.00;;
803;SDS011;25687;49.976;8.240;2023-05-10T14:49:18;4.77;;;0.90;;
803;SDS011;25687;49.976;8.240;2023-05-10T14:51:43;1.93;;;1.10;;
803;SDS011;25687;49.976;8.240;2023-05-10T14:54:09;2.13;;;1.03;;
803;SDS011;25687;49.976;8.240;2023-05-10T14:56:35;4.27;;;1.30;;
803;SDS011;25687;49.976;8.240;2023-05-10T14:59:02;4.37;;;1.33;;
803;SDS011;25687;49.976;8.240;2023-05-10T15:01:28;1.33;;;0.77;;
803;SDS011;25687;49.976;8.240;2023-05-10T15:03:54;1.97;;;1.00;;
803;SDS011;25687;49.976;8.240;2023-05-10T15:06:23;4.30;;;1.27;;
803;SDS011;25687;49.976;8.240;2023-05-10T15:08:55;5.47;;;1.37;;
803;SDS011;25687;49.976;8.240;2023-05-10T15:11:20;2.97;;;1.10;;
803;SDS011;25687;49.976;8.240;2023-05-10T15:13:46;1.67;;;0.93;;
803;SDS011;25687;49.976;8.240;2023-05-10T15:16:11;3.00;;;1.23;;
803;SDS011;25687;49.976;8.240;2023-05-10T15:18:36;3.73;;;1.10;;
803;SDS011;25687;49.976;8.240;2023-05-10T15:21:02;4.63;;;1.23;;
803;SDS011;25687;49.976;8.240;2023-05-10T15:23:27;5.60;;;0.90;;
803;SDS011;25687;49.976;8.240;2023-05-10T15:25:53;5.17;;;1.43;;
803;SDS011;25687;49.976;8.240;2023-05-10T15:28:20;3.83;;;1.17;;
803;SDS011;25687;49.976;8.240;2023-05-10T15:30:45;3.87;;;1.20;;
803;SDS011;25687;49.976;8.240;2023-05-10T15:33:11;5.83;;;1.10;;
803;SDS011;25687;49.976;8.240;2023-05-10T15:35:36;8.50;;;1.40;;
803;SDS011;25687;49.976;8.240;2023-05-10T15:38:03;3.80;;;1.30;;
803;SDS011;25687;49.976;8.240;2023-05-10T15:40:28;5.33;;;1.23;;
803;SDS011;25687;49.976;8.240;2023-05-10T15:42:53;2.33;;;0.97;;
803;SDS011;25687;49.976;8.240;2023-05-10T15:45:19;2.73;;;1.30;;
803;SDS011;25687;49.976;8.240;2023-05-10T15:47:44;3.10;;;1.07;;